Time;durP1;ratioP1;P1;durP2;ratioP2;P2;SDS_P1;SDS_P2;PMS_P1;PMS_P2;Temp;Humidity;BMP_temperature;BMP_pressure;BME280_temperature;BME280_humidity;BME280_pressure;Samples;Min_cycle;Max_cycle;Signal;HPM_P1;HPM_P2
2024/01/05 00:00:03;;;;;;;0.80;0.50;;;;;;;8.24;86.41;98366.91;339092;28;4631;-79
2024/01/05 00:00:17;;;;;;;1.05;0.65;;;;;;;8.28;86.54;98360.69;333710;28;19096;-79
2024/01/05 00:00:29;;;;;;;1.85;0.93;;;;;;;8.30;86.50;98362.31;339810;28;7488;-79
2024/01/05 00:00:41;;;;;;;1.85;1.00;;;;;;;8.32;86.18;98367.41;336578;28;14065;-79
2024/01/05 00:00:53;;;;;;;2.50;1.23;;;;;;;8.28;85.81;98364.13;337796;28;7082;-79
2024/01/05 00:01:05;;;;;;;1.75;0.95;;;;;;;8.30;85.63;98362.31;339114;28;4549;-80
2024/01/05 00:01:17;;;;;;;1.90;0.60;;;;;;;8.29;85.67;98363.22;330012;28;14207;-79
2024/01/05 00:01:30;;;;;;;2.25;0.65;;;;;;;8.28;86.15;98358.13;336840;28;4685;-79
2024/01/05 00:01:42;;;;;;;1.20;0.68;;;;;;;8.26;86.24;98360.75;333084;28;19402;-79
2024/01/05 00:01:54;;;;;;;0.93;0.60;;;;;;;8.27;86.16;98357.28;337872;28;4549;-79
2024/01/05 00:02:07;;;;;;;0.90;0.70;;;;;;;8.26;86.18;98363.34;334232;28;13284;-79
2024/01/05 00:02:21;;;;;;;2.28;0.80;;;;;;;8.28;86.07;98358.94;336841;28;4549;-80
2024/01/05 00:02:33;;;;;;;2.92;0.90;;;;;;;8.27;86.50;98352.09;333776;28;16911;-79
2024/01/05 00:02:45;;;;;;;3.15;0.85;;;;;;;8.29;86.06;98363.22;336759;28;4576;-79
2024/01/05 00:02:59;;;;;;;2.20;0.80;;;;;;;8.30;86.10;98359.72;336558;28;18195;-79
2024/01/05 00:03:11;;;;;;;4.50;0.50;;;;;;;8.29;85.72;98357.19;335513;28;18307;-79
2024/01/05 00:03:24;;;;;;;4.88;0.60;;;;;;;8.22;86.52;98361.81;338798;28;5403;-80
2024/01/05 00:03:36;;;;;;;1.50;0.57;;;;;;;8.19;86.82;98360.19;337609;28;13639;-79
2024/01/05 00:03:48;;;;;;;1.75;0.50;;;;;;;8.19;86.64;98354.19;336410;28;17120;-79
2024/01/05 00:04:00;;;;;;;2.33;0.60;;;;;;;8.21;86.25;98352.38;338212;28;4737;-79
2024/01/05 00:04:12;;;;;;;3.55;0.63;;;;;;;8.22;85.86;98354.03;331216;28;19212;-79
2024/01/05 00:04:25;;;;;;;3.58;0.70;;;;;;;8.24;86.09;98357.41;338541;28;5781;-79
2024/01/05 00:04:37;;;;;;;2.45;0.70;;;;;;;8.25;85.96;98348.75;338235;28;4936;-79
2024/01/05 00:04:49;;;;;;;2.25;0.90;;;;;;;8.27;85.85;98357.28;336545;28;18097;-80
2024/01/05 00:05:01;;;;;;;1.95;0.80;;;;;;;8.29;85.68;98352.88;340987;28;4571;-79
2024/01/05 00:05:13;;;;;;;1.38;0.63;;;;;;;8.27;86.09;98352.09;338092;28;18608;-80
2024/01/05 00:05:25;;;;;;;1.90;0.60;;;;;;;8.31;85.74;98358.81;339118;28;4645;-79
2024/01/05 00:05:39;;;;;;;1.90;0.52;;;;;;;8.33;85.85;98357.00;335845;28;17503;-80
2024/01/05 00:05:51;;;;;;;1.80;0.50;;;;;;;8.35;85.57;98352.59;340041;28;4560;-80
2024/01/05 00:06:03;;;;;;;3.00;0.68;;;;;;;8.33;85.51;98349.25;337634;28;18537;-79
2024/01/05 00:06:16;;;;;;;2.17;0.65;;;;;;;8.34;85.49;98352.66;339780;28;5019;-79
2024/01/05 00:06:28;;;;;;;2.20;0.70;;;;;;;8.32;85.49;98357.91;334967;28;18085;-79
2024/01/05 00:06:40;;;;;;;1.75;0.60;;;;;;;8.31;85.12;98358.81;336457;28;4784;-79
2024/01/05 00:06:53;;;;;;;2.00;0.68;;;;;;;8.29;84.46;98359.78;333163;28;18500;-78
2024/01/05 00:07:09;;;;;;;1.50;0.70;;;;;;;8.29;84.60;98360.63;336764;28;5311;-79
2024/01/05 00:07:21;;;;;;;1.20;0.68;;;;;;;8.29;84.12;98350.28;334015;28;18337;-79
2024/01/05 00:07:33;;;;;;;1.95;0.73;;;;;;;8.25;83.67;98353.91;334556;28;18244;-79
2024/01/05 00:07:45;;;;;;;3.00;0.90;;;;;;;8.19;83.20;98360.19;337832;28;5878;-79
2024/01/05 00:07:57;;;;;;;3.08;0.88;;;;;;;8.13;82.96;98354.44;333652;28;14214;-79
2024/01/05 00:08:10;;;;;;;2.75;0.90;;;;;;;8.10;82.87;98359.75;338445;28;4688;-79
2024/01/05 00:08:22;;;;;;;3.38;0.90;;;;;;;8.06;82.61;98358.19;339199;28;4570;-79
2024/01/05 00:08:34;;;;;;;2.35;0.73;;;;;;;8.07;82.62;98354.69;336352;28;4784;-79
2024/01/05 00:08:46;;;;;;;1.73;0.70;;;;;;;8.10;82.67;98357.16;339776;28;5773;-79
2024/01/05 00:08:58;;;;;;;2.00;0.70;;;;;;;8.13;83.13;98362.19;337760;28;13351;-79
2024/01/05 00:09:10;;;;;;;1.75;0.60;;;;;;;8.16;83.29;98354.31;339801;28;18075;-79
2024/01/05 00:09:22;;;;;;;1.55;0.50;;;;;;;8.18;83.54;98358.50;340519;28;4743;-79
2024/01/05 00:09:35;;;;;;;3.40;0.50;;;;;;;8.21;83.75;98352.38;335715;28;17978;-79
2024/01/05 00:09:47;;;;;;;4.40;0.50;;;;;;;8.17;82.52;98356.00;334269;28;4759;-79
2024/01/05 00:09:59;;;;;;;4.20;0.60;;;;;;;8.10;81.90;98355.41;333733;28;18256;-79
2024/01/05 00:10:11;;;;;;;3.67;0.60;;;;;;;8.08;81.98;98358.97;338117;28;5646;-79
2024/01/05 00:10:23;;;;;;;3.42;0.80;;;;;;;8.06;82.35;98353.03;335877;28;9369;-79
2024/01/05 00:10:35;;;;;;;4.30;1.00;;;;;;;8.05;82.81;98357.38;336681;28;5129;-79
2024/01/05 00:10:47;;;;;;;4.03;0.90;;;;;;;8.03;82.59;98353.16;340267;28;4517;-79
2024/01/05 00:10:59;;;;;;;2.08;0.73;;;;;;;8.04;82.21;98354.84;337169;28;18387;-79
2024/01/05 00:11:18;;;;;;;1.63;0.82;;;;;;;7.96;82.17;98358.59;338152;28;5143;-79
2024/01/05 00:11:30;;;;;;;1.70;0.75;;;;;;;7.88;82.28;98354.66;335360;28;17992;-79
2024/01/05 00:11:43;;;;;;;2.28;0.68;;;;;;;7.87;82.60;98352.97;338133;28;4654;-79
2024/01/05 00:11:55;;;;;;;3.95;0.80;;;;;;;7.83;82.27;98357.44;335156;28;18306;-79
2024/01/05 00:12:07;;;;;;;3.78;0.90;;;;;;;7.84;82.11;98358.28;337882;28;4588;-79
2024/01/05 00:12:19;;;;;;;2.35;0.98;;;;;;;7.85;82.52;98354.78;336725;28;15052;-80
2024/01/05 00:12:31;;;;;;;1.90;0.90;;;;;;;7.87;83.36;98359.00;338718;28;5483;-79
2024/01/05 00:12:43;;;;;;;1.48;0.75;;;;;;;7.90;83.60;98353.66;333287;28;4541;-79
2024/01/05 00:12:55;;;;;;;1.55;0.90;;;;;;;7.86;83.16;98356.47;335396;28;21469;-79
2024/01/05 00:13:07;;;;;;;1.83;1.20;;;;;;;7.85;82.85;98355.63;337551;28;4514;-79
2024/01/05 00:13:19;;;;;;;1.70;1.15;;;;;;;7.85;83.16;98355.63;334683;28;16448;-79
2024/01/05 00:13:31;;;;;;;1.63;1.02;;;;;;;7.83;83.35;98359.16;338392;28;5124;-79
2024/01/05 00:13:43;;;;;;;1.40;1.00;;;;;;;7.84;83.71;98359.09;339027;28;5282;-79
2024/01/05 00:13:55;;;;;;;1.80;0.95;;;;;;;7.88;83.86;98355.47;336238;28;19203;-79
2024/01/05 00:14:08;;;;;;;2.10;1.08;;;;;;;7.88;83.36;98354.66;338141;28;4598;-79
2024/01/05 00:14:20;;;;;;;2.38;1.20;;;;;;;7.90;83.75;98352.84;334576;28;4677;-79
2024/01/05 00:14:32;;;;;;;1.58;0.95;;;;;;;7.90;84.09;98353.66;335618;28;18652;-79
2024/01/05 00:14:44;;;;;;;0.95;0.68;;;;;;;7.87;83.55;98356.41;337052;28;4614;-79
2024/01/05 00:14:56;;;;;;;2.13;0.60;;;;;;;7.85;83.87;98350.47;334034;28;18724;-79
2024/01/05 00:15:11;;;;;;;2.40;0.75;;;;;;;7.79;85.63;98356.72;336867;28;4519;-79
2024/01/05 00:15:23;;;;;;;1.27;0.90;;;;;;;7.80;85.42;98357.56;334395;28;18552;-79
2024/01/05 00:15:36;;;;;;;1.75;1.10;;;;;;;7.83;85.46;98352.28;333291;28;18231;-79
2024/01/05 00:15:48;;;;;;;1.92;1.20;;;;;;;7.87;85.39;98348.66;334625;28;17891;-79
2024/01/05 00:16:00;;;;;;;1.75;1.00;;;;;;;7.91;85.23;98349.38;335572;28;11449;-79
2024/01/05 00:16:22;;;;;;;1.95;1.05;;;;;;;7.93;85.20;98348.38;333678;28;18174;-79
2024/01/05 00:16:34;;;;;;;1.02;0.80;;;;;;;7.95;85.54;98343.16;330823;28;17854;-79
2024/01/05 00:16:46;;;;;;;0.70;0.63;;;;;;;7.97;85.40;98339.59;331660;29;19003;-79
2024/01/05 00:16:59;;;;;;;1.33;0.90;;;;;;;7.99;85.17;98350.72;329628;29;5110;-79
2024/01/05 00:17:11;;;;;;;1.50;0.90;;;;;;;8.04;85.22;98334.13;332347;28;18240;-79
2024/01/05 00:17:23;;;;;;;1.60;0.70;;;;;;;8.06;85.39;98337.50;337142;28;4738;-79
2024/01/05 00:17:35;;;;;;;1.23;0.50;;;;;;;8.10;85.18;98345.06;334309;28;13357;-79
2024/01/05 00:17:47;;;;;;;1.60;0.55;;;;;;;8.11;85.19;98335.53;335541;28;4599;-79
2024/01/05 00:18:00;;;;;;;1.33;0.70;;;;;;;8.12;84.96;98335.47;337437;28;4653;-79
2024/01/05 00:18:12;;;;;;;3.90;0.90;;;;;;;8.11;85.19;98340.72;335588;28;18176;-79
2024/01/05 00:18:24;;;;;;;4.05;0.82;;;;;;;8.09;85.46;98332.19;339080;28;4760;-79
2024/01/05 00:18:36;;;;;;;2.80;0.75;;;;;;;8.08;85.33;98336.50;332419;28;4852;-79
2024/01/05 00:18:50;;;;;;;1.02;0.60;;;;;;;8.08;85.11;98333.09;338725;28;4538;-79
2024/01/05 00:19:02;;;;;;;2.47;0.80;;;;;;;8.10;85.37;98334.69;335479;28;17932;-79
2024/01/05 00:19:14;;;;;;;2.60;0.90;;;;;;;8.11;85.57;98330.34;336557;28;4574;-79
2024/01/05 00:19:26;;;;;;;1.55;0.77;;;;;;;8.13;85.08;98338.91;335049;28;16665;-79
2024/01/05 00:19:39;;;;;;;1.00;0.73;;;;;;;8.12;85.22;98332.06;334469;28;5418;-79
2024/01/05 00:19:51;;;;;;;1.33;1.00;;;;;;;8.09;85.31;98332.19;337981;28;5384;-79
2024/01/05 00:20:06;;;;;;;1.90;1.10;;;;;;;8.11;85.38;98335.53;337509;28;18448;-79
2024/01/05 00:20:18;;;;;;;1.80;0.88;;;;;;;8.03;85.59;98337.63;337295;28;17506;-79
2024/01/05 00:20:30;;;;;;;1.33;0.70;;;;;;;8.00;86.73;98334.25;338780;28;5657;-79
2024/01/05 00:20:42;;;;;;;1.08;0.80;;;;;;;8.03;86.73;98342.78;336569;28;13262;-79
2024/01/05 00:20:54;;;;;;;1.67;1.05;;;;;;;8.06;86.62;98338.34;339442;28;4572;-80
2024/01/05 00:21:06;;;;;;;2.70;1.08;;;;;;;8.07;86.34;98336.56;340317;28;4997;-79
2024/01/05 00:21:22;;;;;;;2.10;0.80;;;;;;;8.12;86.10;98329.47;337549;28;19692;-79
2024/01/05 00:21:34;;;;;;;2.80;0.70;;;;;;;8.00;85.95;98334.25;337358;28;18144;-79
2024/01/05 00:21:46;;;;;;;2.90;0.70;;;;;;;7.95;86.39;98336.22;340398;28;5271;-79
2024/01/05 00:21:58;;;;;;;1.95;0.65;;;;;;;7.96;86.25;98337.88;334491;28;18080;-79
2024/01/05 00:22:10;;;;;;;1.15;0.60;;;;;;;7.92;86.52;98338.94;337089;28;4552;-78
2024/01/05 00:22:22;;;;;;;1.17;0.55;;;;;;;7.90;86.69;98338.16;335787;28;9918;-79
2024/01/05 00:22:35;;;;;;;1.15;0.70;;;;;;;7.94;86.55;98337.09;338182;28;4659;-79
2024/01/05 00:22:47;;;;;;;2.25;0.85;;;;;;;7.96;86.31;98331.88;338295;28;4534;-79
2024/01/05 00:22:59;;;;;;;2.30;0.90;;;;;;;7.96;86.49;98340.47;333765;28;18303;-79
2024/01/05 00:23:11;;;;;;;1.67;0.70;;;;;;;7.93;86.66;98338.03;337056;28;5647;-79
2024/01/05 00:23:23;;;;;;;1.52;0.52;;;;;;;7.94;86.49;98338.88;334641;28;5309;-79
2024/01/05 00:23:35;;;;;;;1.48;0.60;;;;;;;7.91;86.40;98339.84;337203;28;5130;-79
2024/01/05 00:23:49;;;;;;;1.63;0.60;;;;;;;7.89;86.26;98340.81;333375;28;12511;-79
2024/01/05 00:24:01;;;;;;;1.33;0.55;;;;;;;7.89;86.02;98336.47;335729;28;5419;-79
2024/01/05 00:24:13;;;;;;;0.73;0.52;;;;;;;7.88;85.62;98339.97;331918;29;18051;-79
2024/01/05 00:24:25;;;;;;;1.50;0.57;;;;;;;7.88;85.97;98333.97;335580;28;4510;-79
2024/01/05 00:24:37;;;;;;;1.83;0.52;;;;;;;7.90;85.75;98338.16;336096;28;5748;-79
2024/01/05 00:24:49;;;;;;;2.00;0.52;;;;;;;7.86;84.60;98336.59;331043;28;18068;-79
2024/01/05 00:25:03;;;;;;;5.00;0.80;;;;;;;7.85;84.66;98334.06;335691;28;4576;-79
2024/01/05 00:25:16;;;;;;;4.20;0.80;;;;;;;7.83;84.07;98336.75;334827;28;18071;-79
2024/01/05 00:25:28;;;;;;;2.45;0.73;;;;;;;7.82;84.42;98335.06;335329;28;4795;-79
2024/01/05 00:25:40;;;;;;;3.83;0.80;;;;;;;7.82;84.67;98335.06;335700;28;18368;-79
2024/01/05 00:25:52;;;;;;;3.83;0.85;;;;;;;7.79;84.12;98336.03;338108;28;5189;-79
2024/01/05 00:26:04;;;;;;;1.60;0.68;;;;;;;7.75;83.58;98331.06;334503;28;18932;-79
2024/01/05 00:26:17;;;;;;;2.10;0.70;;;;;;;7.72;83.72;98334.59;337455;28;4557;-79
2024/01/05 00:26:28;;;;;;;2.30;0.73;;;;;;;7.75;83.97;98328.47;336463;28;18023;-79
2024/01/05 00:26:41;;;;;;;3.00;0.85;;;;;;;7.75;84.26;98338.81;338651;28;5547;-79
2024/01/05 00:26:54;;;;;;;3.75;0.98;;;;;;;7.74;84.83;98337.13;333000;28;16774;-79
2024/01/05 00:27:06;;;;;;;5.18;1.05;;;;;;;7.76;84.88;98330.13;330857;28;6421;-79
2024/01/05 00:27:18;;;;;;;3.85;0.95;;;;;;;7.79;85.09;98336.03;335742;28;5576;-80
2024/01/05 00:27:30;;;;;;;2.90;0.70;;;;;;;7.82;85.61;98341.97;333573;28;18834;-79
2024/01/05 00:27:42;;;;;;;1.20;0.60;;;;;;;7.84;85.48;98333.25;335766;28;5614;-79
2024/01/05 00:27:54;;;;;;;1.80;0.68;;;;;;;7.84;85.16;98328.06;336822;28;19323;-79
2024/01/05 00:28:06;;;;;;;2.45;0.70;;;;;;;7.81;84.81;98333.38;338743;28;4840;-79
2024/01/05 00:28:18;;;;;;;2.05;0.77;;;;;;;7.72;85.31;98333.75;337539;28;14166;-79
2024/01/05 00:28:30;;;;;;;2.88;0.93;;;;;;;7.69;85.12;98333.91;340524;28;5721;-79
2024/01/05 00:28:44;;;;;;;2.15;0.95;;;;;;;7.72;85.26;98333.75;335433;28;4763;-79
2024/01/05 00:28:56;;;;;;;1.75;0.82;;;;;;;7.76;85.67;98332.72;337048;28;17783;-79
2024/01/05 00:29:08;;;;;;;2.03;0.73;;;;;;;7.76;85.56;98332.72;339992;28;4541;-79
2024/01/05 00:29:20;;;;;;;2.47;0.80;;;;;;;7.71;85.29;98332.09;336196;28;16320;-79
2024/01/05 00:29:32;;;;;;;1.98;0.80;;;;;;;7.62;85.36;98342.81;339910;28;5122;-79
2024/01/05 00:29:44;;;;;;;1.67;0.57;;;;;;;7.53;85.42;98334.53;339975;28;4562;-79
2024/01/05 00:29:56;;;;;;;2.10;0.68;;;;;;;7.44;85.62;98339.25;336025;28;18611;-79
2024/01/05 00:30:09;;;;;;;2.70;0.80;;;;;;;7.38;85.44;98335.16;333837;28;5528;-79
2024/01/05 00:30:22;;;;;;;2.92;0.95;;;;;;;7.39;85.89;98336.84;335948;28;19424;-79
2024/01/05 00:30:34;;;;;;;2.50;0.90;;;;;;;7.31;85.75;98331.16;338010;28;4696;-79
2024/01/05 00:30:47;;;;;;;1.77;0.80;;;;;;;7.27;86.24;98338.19;334866;28;18357;-79
2024/01/05 00:30:59;;;;;;;1.60;0.57;;;;;;;7.26;86.00;98333.91;334751;28;12939;-79
2024/01/05 00:31:12;;;;;;;2.20;0.65;;;;;;;7.32;86.17;98340.56;336203;28;18237;-79
2024/01/05 00:31:24;;;;;;;2.60;0.68;;;;;;;7.31;85.67;98338.91;336535;28;17175;-79
2024/01/05 00:31:37;;;;;;;2.15;0.70;;;;;;;7.31;85.78;98334.56;329845;28;16269;-79
2024/01/05 00:31:49;;;;;;;2.60;1.00;;;;;;;7.29;85.26;98338.13;337445;28;5749;-79
2024/01/05 00:32:01;;;;;;;3.08;1.00;;;;;;;7.32;85.45;98335.41;331838;28;18133;-79
2024/01/05 00:32:13;;;;;;;2.10;0.85;;;;;;;7.29;84.95;98338.13;337254;28;4923;-79
2024/01/05 00:32:29;;;;;;;0.90;0.80;;;;;;;7.32;85.14;98340.56;336018;28;17951;-79
2024/01/05 00:32:41;;;;;;;2.13;0.73;;;;;;;7.39;86.00;98337.69;335645;28;18713;-79
2024/01/05 00:32:53;;;;;;;2.28;0.65;;;;;;;7.36;86.07;98342.13;339316;28;4618;-79
2024/01/05 00:33:06;;;;;;;1.75;0.70;;;;;;;7.32;85.48;98340.56;340256;28;5571;-79
2024/01/05 00:33:18;;;;;;;1.40;0.75;;;;;;;7.32;85.79;98346.56;333950;28;18998;-79
2024/01/05 00:33:30;;;;;;;0.80;0.60;;;;;;;7.33;85.66;98334.50;340901;28;5589;-79
2024/01/05 00:33:43;;;;;;;3.50;0.63;;;;;;;7.39;86.30;98336.84;336462;28;18173;-79
2024/01/05 00:33:55;;;;;;;4.15;0.57;;;;;;;7.47;86.47;98334.78;338219;28;4916;-79
2024/01/05 00:34:08;;;;;;;2.97;0.68;;;;;;;7.53;86.70;98344.88;336126;28;17729;-79
2024/01/05 00:34:20;;;;;;;2.58;0.80;;;;;;;7.56;86.70;98344.72;340057;28;4622;-79
2024/01/05 00:34:32;;;;;;;2.50;0.90;;;;;;;7.60;86.85;98345.47;331809;28;18245;-79
2024/01/05 00:34:45;;;;;;;3.20;0.80;;;;;;;7.64;86.99;98341.84;338498;28;5505;-79
2024/01/05 00:34:57;;;;;;;3.30;0.70;;;;;;;7.66;86.97;98345.19;331604;28;18052;-79
2024/01/05 00:35:09;;;;;;;1.88;0.60;;;;;;;7.70;86.82;98345.91;338200;28;4547;-79
2024/01/05 00:35:21;;;;;;;0.93;0.45;;;;;;;7.72;87.41;98349.28;335793;28;4574;-79
2024/01/05 00:35:34;;;;;;;1.17;0.50;;;;;;;7.74;86.79;98347.47;339044;28;4534;-79
2024/01/05 00:35:46;;;;;;;2.65;0.70;;;;;;;7.78;86.96;98349.03;336212;28;4709;-79
2024/01/05 00:35:59;;;;;;;4.40;0.85;;;;;;;7.80;86.86;98347.22;333954;28;18731;-79
2024/01/05 00:36:11;;;;;;;4.75;1.08;;;;;;;7.85;86.92;98350.47;334989;28;4532;-79
2024/01/05 00:36:23;;;;;;;4.30;1.10;;;;;;;7.88;86.81;98349.47;336941;28;19462;-79
2024/01/05 00:36:36;;;;;;;1.27;0.68;;;;;;;7.89;86.56;98352.00;338635;28;5083;-79
2024/01/05 00:36:48;;;;;;;2.17;0.88;;;;;;;7.92;86.66;98346.69;336047;28;18493;-80
2024/01/05 00:37:00;;;;;;;2.53;1.05;;;;;;;7.92;86.29;98359.63;338383;28;4594;-79
2024/01/05 00:37:12;;;;;;;2.45;1.10;;;;;;;7.93;86.36;98348.38;339328;28;5189;-79
2024/01/05 00:37:24;;;;;;;3.13;1.27;;;;;;;7.93;85.74;98348.38;337222;28;18684;-79
2024/01/05 00:37:36;;;;;;;3.15;1.20;;;;;;;7.90;85.66;98353.66;334278;28;5133;-79
2024/01/05 00:37:48;;;;;;;1.90;0.80;;;;;;;7.90;85.80;98351.09;336988;28;13048;-79
2024/01/05 00:38:00;;;;;;;2.40;0.77;;;;;;;7.91;85.69;98355.38;339348;28;4627;-79
2024/01/05 00:38:12;;;;;;;1.90;0.70;;;;;;;7.90;85.86;98353.66;337429;28;4524;-79
2024/01/05 00:38:24;;;;;;;1.30;0.70;;;;;;;7.91;85.78;98349.38;333634;28;18597;-79
2024/01/05 00:38:36;;;;;;;1.05;0.77;;;;;;;7.89;85.86;98357.19;335626;28;5522;-79
2024/01/05 00:38:49;;;;;;;1.00;0.80;;;;;;;7.88;86.02;98347.72;333866;28;18196;-79
2024/01/05 00:39:01;;;;;;;1.30;0.87;;;;;;;7.87;85.93;98347.78;337855;28;4496;-79
2024/01/05 00:39:15;;;;;;;2.13;0.93;;;;;;;7.86;85.70;98349.53;333356;28;5376;-79
2024/01/05 00:39:28;;;;;;;2.67;0.98;;;;;;;7.85;85.57;98350.47;339256;28;17502;-79
2024/01/05 00:39:41;;;;;;;1.58;0.75;;;;;;;7.84;85.72;98353.94;337053;28;18625;-79
2024/01/05 00:39:53;;;;;;;1.83;1.00;;;;;;;7.82;85.97;98355.75;339173;28;4582;-79
2024/01/05 00:40:06;;;;;;;1.70;1.10;;;;;;;7.77;85.86;98349.94;335940;28;18421;-79
2024/01/05 00:40:18;;;;;;;2.45;1.05;;;;;;;7.77;85.93;98347.34;337534;28;4956;-79
2024/01/05 00:40:30;;;;;;;1.88;0.88;;;;;;;7.75;85.80;98354.34;335308;28;18022;-79
2024/01/05 00:40:42;;;;;;;1.70;0.90;;;;;;;7.74;85.90;98352.66;337955;28;4933;-79
2024/01/05 00:40:54;;;;;;;2.75;0.93;;;;;;;7.72;86.21;98349.28;336381;28;18577;-79
2024/01/05 00:41:06;;;;;;;2.97;1.00;;;;;;;7.70;86.39;98353.69;339136;28;4550;-79
2024/01/05 00:41:18;;;;;;;2.50;0.83;;;;;;;7.69;86.43;98352.84;337512;28;4735;-79
2024/01/05 00:41:30;;;;;;;2.47;0.90;;;;;;;7.67;86.75;98354.66;335055;28;18102;-79
2024/01/05 00:41:45;;;;;;;2.78;0.98;;;;;;;7.66;86.74;98349.53;339363;28;4804;-79
2024/01/05 00:41:57;;;;;;;3.75;1.83;;;;;;;7.64;86.68;98356.53;335583;28;19330;-80
2024/01/05 00:42:10;;;;;;;3.35;1.85;;;;;;;7.66;86.74;98346.94;335254;28;19138;-80
2024/01/05 00:42:22;;;;;;;3.03;1.20;;;;;;;7.67;86.72;98351.25;338304;28;4784;-79
2024/01/05 00:42:34;;;;;;;2.80;0.60;;;;;;;7.67;86.56;98352.06;335445;28;13615;-79
2024/01/05 00:42:46;;;;;;;2.90;0.60;;;;;;;7.66;86.54;98352.13;335267;28;6839;-79
2024/01/05 00:42:58;;;;;;;1.70;0.63;;;;;;;7.65;86.38;98350.47;337190;28;7355;-79
2024/01/05 00:43:10;;;;;;;2.40;1.00;;;;;;;7.65;86.45;98348.69;335117;28;18903;-80
2024/01/05 00:43:22;;;;;;;2.95;1.35;;;;;;;7.56;86.09;98355.06;333148;28;4751;-79
2024/01/05 00:43:34;;;;;;;3.10;1.50;;;;;;;7.47;85.84;98357.22;335424;28;12725;-80
2024/01/05 00:43:46;;;;;;;2.08;1.42;;;;;;;7.51;85.94;98357.03;337999;28;4612;-80
2024/01/05 00:43:58;;;;;;;1.58;1.13;;;;;;;7.52;86.37;98358.69;336698;28;5309;-80
2024/01/05 00:44:10;;;;;;;1.92;0.95;;;;;;;7.55;86.16;98347.41;335381;28;13124;-80
2024/01/05 00:44:22;;;;;;;2.55;0.93;;;;;;;7.57;85.98;98350.78;337786;28;5333;-80
2024/01/05 00:44:34;;;;;;;2.92;1.55;;;;;;;7.59;86.64;98349.78;333643;28;11013;-81
2024/01/05 00:44:46;;;;;;;2.50;1.75;;;;;;;7.63;86.32;98349.69;337596;28;4711;-81
2024/01/05 00:44:58;;;;;;;2.28;1.60;;;;;;;7.64;86.38;98341.00;329464;28;5154;-81
2024/01/05 00:45:10;;;;;;;3.45;1.38;;;;;;;7.66;86.65;98345.19;334827;28;8669;-81
2024/01/05 00:45:22;;;;;;;3.78;1.17;;;;;;;7.68;86.82;98347.72;337535;28;4525;-81
2024/01/05 00:45:34;;;;;;;1.52;0.77;;;;;;;7.69;86.87;98352.84;337194;28;5318;-81
2024/01/05 00:45:46;;;;;;;2.60;0.80;;;;;;;7.69;86.94;98349.44;334815;28;19023;-81
2024/01/05 00:45:59;;;;;;;2.90;0.98;;;;;;;7.70;86.88;98351.09;337832;28;4720;-81
2024/01/05 00:46:11;;;;;;;1.88;0.93;;;;;;;7.68;86.71;98345.97;335897;28;16992;-80
2024/01/05 00:46:23;;;;;;;2.58;1.02;;;;;;;7.70;86.68;98351.09;333334;28;5280;-80
2024/01/05 00:46:37;;;;;;;1.63;0.80;;;;;;;7.71;86.85;98347.63;338798;28;5166;-80
2024/01/05 00:46:49;;;;;;;1.95;0.77;;;;;;;7.70;86.69;98354.50;337544;28;17561;-80
2024/01/05 00:47:01;;;;;;;3.83;0.80;;;;;;;7.69;86.89;98350.25;337345;28;18049;-80
2024/01/05 00:47:13;;;;;;;4.03;0.80;;;;;;;7.68;86.74;98351.16;340127;28;5013;-81
2024/01/05 00:47:25;;;;;;;3.50;0.77;;;;;;;7.68;86.82;98353.72;337061;28;13542;-81
2024/01/05 00:47:37;;;;;;;3.20;0.80;;;;;;;7.66;86.86;98352.13;338962;28;5245;-81
2024/01/05 00:47:49;;;;;;;3.03;0.70;;;;;;;7.63;86.73;98350.50;339012;28;4812;-80
2024/01/05 00:48:02;;;;;;;1.30;0.70;;;;;;;7.63;86.84;98354.84;337377;28;17772;-81
2024/01/05 00:48:14;;;;;;;2.40;1.00;;;;;;;7.61;87.17;98354.91;338594;28;5514;-80
2024/01/05 00:48:26;;;;;;;3.00;1.10;;;;;;;7.60;86.95;98351.47;336209;28;17877;-81
2024/01/05 00:48:39;;;;;;;3.13;0.93;;;;;;;7.62;87.29;98358.31;338097;28;5597;-81
2024/01/05 00:48:51;;;;;;;1.25;0.63;;;;;;;7.60;87.19;98356.63;336372;28;4812;-81
2024/01/05 00:49:03;;;;;;;1.33;0.65;;;;;;;7.60;86.93;98354.03;337808;28;17561;-81
2024/01/05 00:49:16;;;;;;;1.60;0.80;;;;;;;7.63;86.82;98354.84;338768;28;4803;-81
2024/01/05 00:49:28;;;;;;;2.60;1.20;;;;;;;7.66;86.91;98357.28;335720;28;17987;-80
2024/01/05 00:49:40;;;;;;;4.38;2.22;;;;;;;7.66;86.85;98358.13;338203;28;4529;-80
2024/01/05 00:49:52;;;;;;;4.70;2.28;;;;;;;7.65;86.54;98353.03;335378;28;17399;-80
2024/01/05 00:50:06;;;;;;;4.38;1.73;;;;;;;7.66;86.65;98360.72;339319;28;5457;-80
2024/01/05 00:50:18;;;;;;;4.88;1.45;;;;;;;7.66;86.06;98354.72;336257;28;18832;-80
2024/01/05 00:50:30;;;;;;;4.20;1.75;;;;;;;7.60;86.26;98359.22;339028;28;5062;-80
2024/01/05 00:50:42;;;;;;;4.03;2.00;;;;;;;7.58;86.48;98352.44;339758;28;4660;-80
2024/01/05 00:50:54;;;;;;;4.28;2.10;;;;;;;7.57;86.32;98351.59;336466;28;18272;-81
2024/01/05 00:51:07;;;;;;;4.38;2.17;;;;;;;7.58;86.24;98348.09;339026;28;4529;-81
2024/01/05 00:51:19;;;;;;;3.75;1.92;;;;;;;7.57;86.31;98356.78;337112;28;18001;-80
2024/01/05 00:51:31;;;;;;;4.20;1.52;;;;;;;7.58;86.46;98353.28;339134;28;4762;-80
2024/01/05 00:51:43;;;;;;;4.05;1.30;;;;;;;7.62;86.34;98348.00;336472;28;18821;-81
2024/01/05 00:51:57;;;;;;;2.78;1.20;;;;;;;7.59;86.22;98349.78;338584;28;4645;-81
2024/01/05 00:52:09;;;;;;;2.28;1.10;;;;;;;7.60;86.57;98346.28;335314;28;18255;-81
2024/01/05 00:52:21;;;;;;;3.40;1.13;;;;;;;7.62;86.41;98348.00;337640;28;4734;-80
2024/01/05 00:52:33;;;;;;;3.58;1.08;;;;;;;7.60;86.54;98346.28;335390;28;18280;-80
2024/01/05 00:52:45;;;;;;;3.50;1.13;;;;;;;7.60;86.56;98348.03;338201;28;4579;-80
2024/01/05 00:52:57;;;;;;;2.10;1.20;;;;;;;7.58;86.57;98350.69;339489;28;5640;-80
2024/01/05 00:53:09;;;;;;;3.53;1.17;;;;;;;7.55;86.51;98348.25;337357;28;19168;-80
2024/01/05 00:53:21;;;;;;;3.75;1.00;;;;;;;7.37;87.01;98344.66;340084;28;4563;-80
2024/01/05 00:53:33;;;;;;;4.20;1.00;;;;;;;7.22;87.80;98354.78;335810;28;11260;-80
2024/01/05 00:53:45;;;;;;;2.05;0.95;;;;;;;7.16;88.31;98346.38;338622;28;4535;-80
2024/01/05 00:53:57;;;;;;;2.17;1.00;;;;;;;7.07;88.28;98345.88;338082;28;12377;-81
2024/01/05 00:54:09;;;;;;;2.38;1.23;;;;;;;7.02;88.78;98348.63;332993;28;17218;-81
2024/01/05 00:54:21;;;;;;;3.33;1.20;;;;;;;6.91;88.95;98348.22;337953;28;5110;-80
2024/01/05 00:54:33;;;;;;;2.83;1.15;;;;;;;6.92;89.71;98342.16;335064;28;19352;-80
2024/01/05 00:54:47;;;;;;;1.85;0.80;;;;;;;6.96;89.69;98346.28;337922;28;4591;-80
2024/01/05 00:54:59;;;;;;;1.30;0.80;;;;;;;7.01;89.65;98341.78;335041;28;18913;-80
2024/01/05 00:55:11;;;;;;;2.35;0.77;;;;;;;7.04;89.49;98346.84;334001;28;4807;-80
2024/01/05 00:55:24;;;;;;;3.28;1.38;;;;;;;7.08;89.04;98348.38;337773;28;4750;-80
2024/01/05 00:55:36;;;;;;;5.15;1.85;;;;;;;7.13;89.19;98341.31;335215;28;17890;-81
2024/01/05 00:55:48;;;;;;;4.55;2.00;;;;;;;7.17;89.36;98347.22;336341;28;13648;-81
2024/01/05 00:56:00;;;;;;;3.58;1.58;;;;;;;7.24;89.19;98350.38;333203;28;18740;-81
2024/01/05 00:56:12;;;;;;;4.68;1.48;;;;;;;7.28;89.13;98349.34;336081;28;4612;-80
2024/01/05 00:56:24;;;;;;;9.13;2.03;;;;;;;7.28;88.76;98345.00;333950;28;18712;-80
2024/01/05 00:56:36;;;;;;;6.70;2.30;;;;;;;7.31;88.88;98344.06;337527;28;4872;-81
2024/01/05 00:56:48;;;;;;;3.75;1.77;;;;;;;7.26;88.85;98346.00;333022;28;4725;-81
2024/01/05 00:57:00;;;;;;;3.13;1.15;;;;;;;7.25;88.65;98349.50;335039;28;12575;-81
2024/01/05 00:57:12;;;;;;;3.72;1.10;;;;;;;7.20;88.63;98347.06;337573;28;5377;-80
2024/01/05 00:57:25;;;;;;;2.58;1.05;;;;;;;7.20;88.89;98353.09;334886;28;13650;-80
2024/01/05 00:57:37;;;;;;;3.72;1.50;;;;;;;7.21;89.25;98348.78;337650;28;4583;-81
2024/01/05 00:57:49;;;;;;;3.70;1.80;;;;;;;7.22;89.36;98347.00;335619;28;16819;-81
2024/01/05 00:58:01;;;;;;;2.97;1.50;;;;;;;7.36;89.08;98352.47;337298;28;4568;-80
2024/01/05 00:58:13;;;;;;;3.10;1.60;;;;;;;7.47;88.79;98345.13;338962;28;4612;-80
2024/01/05 00:58:25;;;;;;;3.42;1.90;;;;;;;7.38;88.53;98351.53;335129;28;18029;-80
2024/01/05 00:58:37;;;;;;;4.65;2.22;;;;;;;7.34;88.85;98346.53;338862;28;5186;-80
2024/01/05 00:58:49;;;;;;;6.18;2.28;;;;;;;7.36;88.71;98352.47;336097;28;17977;-80
2024/01/05 00:59:02;;;;;;;5.65;2.30;;;;;;;7.37;88.66;98346.41;338430;28;5028;-80
2024/01/05 00:59:18;;;;;;;4.75;2.05;;;;;;;7.33;88.31;98352.59;339577;28;13830;-80
2024/01/05 00:59:30;;;;;;;2.25;1.55;;;;;;;7.18;87.93;98357.50;338551;28;18532;-80
2024/01/05 00:59:42;;;;;;;3.05;1.63;;;;;;;7.22;88.29;98341.84;332576;28;17831;-80
2024/01/05 00:59:54;;;;;;;4.82;1.48;;;;;;;7.28;88.67;98354.53;340305;28;4540;-80
2024/01/05 01:00:08;;;;;;;4.07;1.23;;;;;;;7.30;88.28;98347.53;337254;28;13960;-80